Time;durP1;ratioP1;P1;durP2;ratioP2;P2;SDS_P1;SDS_P2;PMS_P1;PMS_P2;Temp;Humidity;BMP_temperature;BMP_pressure;BME280_temperature;BME280_humidity;BME280_pressure;Samples;Min_cycle;Max_cycle;Signal;HPM_P1;HPM_P2
2024/01/17 00:00:51;;;;;;;;;;;;;;;-4.61;100.00;100173.00;4970681;28;19930;-70
2024/01/17 00:03:16;;;;;;;;;;;;;;;-4.65;100.00;100171.13;5007836;28;19918;-70
2024/01/17 00:05:42;;;;;;;;;;;;;;;-4.70;100.00;100165.84;4997325;28;19929;-71
2024/01/17 00:08:09;;;;;;;;;;;;;;;-4.60;100.00;100164.47;5002463;28;19924;-70
2024/01/17 00:10:34;;;;;;;;;;;;;;;-4.63;100.00;100153.28;4988106;28;20577;-71
2024/01/17 00:13:00;;;;;;;;;;;;;;;-4.49;100.00;100153.81;5011014;28;19968;-70
2024/01/17 00:15:25;;;;;;;;;;;;;;;-4.59;100.00;100147.47;5001769;28;19940;-70
2024/01/17 00:17:50;;;;;;;;;;;;;;;-4.60;100.00;100149.13;4993935;28;20005;-71
2024/01/17 00:20:16;;;;;;;;;;;;;;;-4.55;100.00;100144.22;4990669;28;20011;-70
2024/01/17 00:22:42;;;;;;;;;;;;;;;-4.50;100.00;100136.72;4996999;28;19932;-70
2024/01/17 00:25:10;;;;;;;;;;;;;;;-4.69;100.00;100136.03;5005260;28;19981;-70
2024/01/17 00:27:36;;;;;;;;;;;;;;;-4.66;100.00;100125.91;5006634;28;19987;-70
2024/01/17 00:30:02;;;;;;;;;;;;;;;-4.61;100.00;100129.53;4996907;28;20386;-70
2024/01/17 00:32:27;;;;;;;;;;;;;;;-4.64;100.00;100119.19;5007095;28;20000;-70
2024/01/17 00:34:53;;;;;;;;;;;;;;;-4.67;100.00;100124.16;5002221;28;19929;-70
2024/01/17 00:37:21;;;;;;;;;;;;;;;-4.58;100.00;100118.53;4988439;28;20281;-70
2024/01/17 00:39:46;;;;;;;;;;;;;;;-4.68;100.00;100111.31;5001790;28;19925;-70
2024/01/17 00:42:12;;;;;;;;;;;;;;;-4.66;100.00;100097.78;4993104;28;20351;-68
2024/01/17 00:44:40;;;;;;;;;;;;;;;-4.58;100.00;100091.28;4995256;28;19917;-68
2024/01/17 00:47:05;;;;;;;;;;;;;;;-4.66;100.00;100091.81;4986376;28;20296;-70
2024/01/17 00:49:31;;;;;;;;;;;;;;;-4.68;100.00;100091.75;4993823;28;19921;-70
2024/01/17 00:51:57;;;;;;;;;;;;;;;-4.73;100.00;100080.47;5004076;28;20024;-71
2024/01/17 00:54:22;;;;;;;;;;;;;;;-4.77;100.00;100084.63;4998151;28;19928;-71
2024/01/17 00:56:47;;;;;;;;;;;;;;;-4.64;100.00;100074.81;4982362;28;20278;-70
2024/01/17 00:59:13;;;;;;;;;;;;;;;-4.75;100.00;100077.84;5004383;28;19921;-71
2024/01/17 01:01:38;;;;;;;;;;;;;;;-4.84;100.00;100074.97;5002693;28;19964;-71
2024/01/17 01:04:03;;;;;;;;;;;;;;;-4.81;100.00;100057.19;5010000;28;19949;-70
2024/01/17 01:06:29;;;;;;;;;;;;;;;-4.81;100.00;100059.75;5002833;28;20016;-69
2024/01/17 01:08:54;;;;;;;;;;;;;;;-4.76;100.00;100062.47;4993137;28;19961;-69
2024/01/17 01:11:19;;;;;;;;;;;;;;;-4.68;100.00;100055.06;5006502;28;19957;-69
2024/01/17 01:13:45;;;;;;;;;;;;;;;-4.79;100.00;100052.13;5017736;28;19979;-69
2024/01/17 01:16:10;;;;;;;;;;;;;;;-4.83;100.00;100045.16;4995806;28;19976;-69
2024/01/17 01:18:36;;;;;;;;;;;;;;;-4.96;100.00;100047.25;4979112;28;19929;-69
2024/01/17 01:21:01;;;;;;;;;;;;;;;-4.89;100.00;100049.22;5011773;28;19921;-69
2024/01/17 01:23:27;;;;;;;;;;;;;;;-4.90;100.00;100055.16;4994967;28;20395;-69
2024/01/17 01:25:55;;;;;;;;;;;;;;;-4.93;100.00;100049.94;4995753;28;19937;-70
2024/01/17 01:28:20;;;;;;;;;;;;;;;-4.90;100.00;100050.06;4998151;28;20039;-71
2024/01/17 01:30:45;;;;;;;;;;;;;;;-4.83;100.00;100043.47;5012811;28;20329;-71
2024/01/17 01:33:12;;;;;;;;;;;;;;;-4.97;100.00;100037.84;5004588;28;20586;-69
2024/01/17 01:35:38;;;;;;;;;;;;;;;-4.89;100.00;100038.13;4998664;28;20241;-69
2024/01/17 01:38:03;;;;;;;;;;;;;;;-4.96;100.00;100033.59;5000099;28;20041;-68
2024/01/17 01:40:28;;;;;;;;;;;;;;;-4.97;100.00;100037.84;4986580;28;19976;-68
2024/01/17 01:42:58;;;;;;;;;;;;;;;-4.94;100.00;100037.97;5005640;28;20548;-68
2024/01/17 01:45:24;;;;;;;;;;;;;;;-4.93;100.00;100034.59;5000756;28;20011;-69
2024/01/17 01:47:49;;;;;;;;;;;;;;;-5.00;100.00;100024.94;5002444;28;20457;-68
2024/01/17 01:50:14;;;;;;;;;;;;;;;-5.04;100.00;100030.78;4995485;28;20209;-68
2024/01/17 01:52:42;;;;;;;;;;;;;;;-4.98;100.00;100031.00;4995541;28;19925;-68
2024/01/17 01:55:09;;;;;;;;;;;;;;;-5.02;100.00;100031.69;4999977;28;19922;-69
2024/01/17 01:57:37;;;;;;;;;;;;;;;-5.06;100.00;100019.59;4993060;28;20340;-68
2024/01/17 02:00:04;;;;;;;;;;;;;;;-5.01;100.00;100020.66;4994771;28;20409;-68
2024/01/17 02:02:30;;;;;;;;;;;;;;;-5.05;100.00;100011.13;4985001;28;20016;-68
2024/01/17 02:04:55;;;;;;;;;;;;;;;-5.00;100.00;100011.31;5000066;28;20481;-68
2024/01/17 02:07:21;;;;;;;;;;;;;;;-5.08;100.00;100003.34;4995912;28;19945;-68
2024/01/17 02:09:47;;;;;;;;;;;;;;;-5.09;100.00;100002.47;5009875;28;20016;-68
2024/01/17 02:12:12;;;;;;;;;;;;;;;-5.09;100.00;99997.34;5000213;28;19992;-69
2024/01/17 02:14:39;;;;;;;;;;;;;;;-5.04;100.00;100000.09;4986646;28;19921;-68
2024/01/17 02:17:05;;;;;;;;;;;;;;;-4.94;100.00;99998.75;4998123;28;20024;-69
2024/01/17 02:19:30;;;;;;;;;;;;;;;-5.01;100.00;99990.00;5005744;28;20011;-68
2024/01/17 02:21:56;;;;;;;;;;;;;;;-4.91;100.00;99981.84;4999101;28;20374;-69
2024/01/17 02:24:22;;;;;;;;;;;;;;;-4.82;100.00;99981.31;5015358;28;20415;-68
2024/01/17 02:26:48;;;;;;;;;;;;;;;-4.84;100.00;99974.41;5002508;28;19926;-68
2024/01/17 02:29:13;;;;;;;;;;;;;;;-4.81;100.00;99975.41;5003788;28;19973;-70
2024/01/17 02:31:38;;;;;;;;;;;;;;;-4.87;100.00;99973.50;5001406;28;19924;-70
2024/01/17 02:34:04;;;;;;;;;;;;;;;-4.94;100.00;99965.53;5019991;28;19925;-70
2024/01/17 02:36:29;;;;;;;;;;;;;;;-4.97;100.00;99950.97;5001026;28;19928;-70
2024/01/17 02:38:55;;;;;;;;;;;;;;;-4.87;100.00;99941.94;5006216;28;19925;-69
2024/01/17 02:41:20;;;;;;;;;;;;;;;-4.93;100.00;99942.59;4993073;28;19961;-68
2024/01/17 02:43:45;;;;;;;;;;;;;;;-4.85;100.00;99931.78;5004572;28;19921;-69
2024/01/17 02:46:11;;;;;;;;;;;;;;;-4.92;100.00;99939.22;5004974;28;19925;-68
2024/01/17 02:48:37;;;;;;;;;;;;;;;-4.81;100.00;99925.94;5016096;28;19990;-70
2024/01/17 02:51:05;;;;;;;;;;;;;;;-4.91;100.00;99922.22;5005436;28;19921;-70
2024/01/17 02:53:30;;;;;;;;;;;;;;;-4.77;100.00;99915.03;5007470;28;19925;-70
2024/01/17 02:55:55;;;;;;;;;;;;;;;-4.81;100.00;99910.59;5001061;28;19969;-69
2024/01/17 02:58:22;;;;;;;;;;;;;;;-4.85;100.00;99914.75;5010597;28;20467;-70
2024/01/17 03:00:47;;;;;;;;;;;;;;;-4.97;100.00;99904.97;5010727;28;19921;-70
2024/01/17 03:03:13;;;;;;;;;;;;;;;-4.97;100.00;99909.19;4995525;28;19928;-71
2024/01/17 03:05:38;;;;;;;;;;;;;;;-5.06;100.00;99902.06;4996626;28;20298;-71
2024/01/17 03:08:04;;;;;;;;;;;;;;;-4.96;100.00;99896.47;5006021;28;19979;-70
2024/01/17 03:10:30;;;;;;;;;;;;;;;-4.96;100.00;99880.28;5002482;28;19921;-71
2024/01/17 03:12:55;;;;;;;;;;;;;;;-5.00;100.00;99883.53;5008355;28;20341;-71
2024/01/17 03:15:21;;;;;;;;;;;;;;;-4.91;100.00;99874.53;5001469;28;19926;-71
2024/01/17 03:17:47;;;;;;;;;;;;;;;-4.98;100.00;99876.81;5010740;28;19928;-71
2024/01/17 03:20:12;;;;;;;;;;;;;;;-5.03;100.00;99878.31;5002923;28;19928;-70
2024/01/17 03:22:38;;;;;;;;;;;;;;;-5.05;100.00;99871.47;5023491;28;20282;-70
2024/01/17 03:25:04;;;;;;;;;;;;;;;-4.95;100.00;99866.69;5000499;28;19921;-71
2024/01/17 03:27:29;;;;;;;;;;;;;;;-4.98;100.00;99866.59;4999209;28;20027;-68
2024/01/17 03:29:55;;;;;;;;;;;;;;;-5.06;100.00;99853.53;4998624;28;19926;-69
2024/01/17 03:32:20;;;;;;;;;;;;;;;-4.97;100.00;99856.44;4994492;28;19984;-68
2024/01/17 03:34:46;;;;;;;;;;;;;;;-5.11;100.00;99842.31;4998647;28;19918;-70
2024/01/17 03:37:13;;;;;;;;;;;;;;;-5.12;100.00;99845.66;5004905;28;19925;-68
2024/01/17 03:39:42;;;;;;;;;;;;;;;-5.09;100.00;99833.00;5001833;28;19925;-71
2024/01/17 03:42:07;;;;;;;;;;;;;;;-5.06;100.00;99827.97;5017008;28;19917;-71
2024/01/17 03:44:33;;;;;;;;;;;;;;;-5.07;100.00;99826.25;4998376;28;20448;-68
2024/01/17 03:46:58;;;;;;;;;;;;;;;-5.08;100.00;99816.84;5004592;28;19981;-68
2024/01/17 03:49:23;;;;;;;;;;;;;;;-4.99;100.00;99822.28;4992102;28;19921;-68
2024/01/17 03:51:49;;;;;;;;;;;;;;;-5.13;100.00;99808.16;4999489;28;20377;-68
2024/01/17 03:54:14;;;;;;;;;;;;;;;-5.07;100.00;99803.25;4995120;28;20380;-68
2024/01/17 03:56:39;;;;;;;;;;;;;;;-5.05;100.00;99802.50;5024523;28;20003;-71
2024/01/17 03:59:05;;;;;;;;;;;;;;;-4.95;100.00;99796.00;5005747;28;20405;-71
2024/01/17 04:01:31;;;;;;;;;;;;;;;-4.96;100.00;99788.28;5007226;28;19931;-71
2024/01/17 04:03:56;;;;;;;;;;;;;;;-5.10;100.00;99782.72;4999330;28;19968;-71
2024/01/17 04:06:22;;;;;;;;;;;;;;;-5.09;100.00;99779.34;4989791;28;19936;-71
2024/01/17 04:08:48;;;;;;;;;;;;;;;-5.15;100.00;99762.13;5010820;28;19917;-68
2024/01/17 04:11:13;;;;;;;;;;;;;;;-5.12;100.00;99756.25;5014893;28;19944;-68
2024/01/17 04:13:41;;;;;;;;;;;;;;;-5.15;100.00;99745.94;5009831;28;19975;-68
2024/01/17 04:16:06;;;;;;;;;;;;;;;-5.14;100.00;99735.78;5000154;28;20011;-68
2024/01/17 04:18:32;;;;;;;;;;;;;;;-5.16;100.00;99724.63;5005526;28;20021;-68
2024/01/17 04:20:58;;;;;;;;;;;;;;;-5.04;100.00;99729.28;5001886;28;19973;-68
2024/01/17 04:23:23;;;;;;;;;;;;;;;-4.96;100.00;99720.16;5003005;28;19922;-68
2024/01/17 04:25:49;;;;;;;;;;;;;;;-5.00;100.00;99708.09;5002212;28;19933;-68
2024/01/17 04:28:14;;;;;;;;;;;;;;;-5.01;100.00;99702.94;5009941;28;20382;-68
2024/01/17 04:30:40;;;;;;;;;;;;;;;-5.02;100.00;99701.22;5004183;28;19926;-68
2024/01/17 04:33:07;;;;;;;;;;;;;;;-5.08;100.00;99695.09;5002871;28;19980;-68
2024/01/17 04:35:33;;;;;;;;;;;;;;;-5.12;100.00;99689.84;5011343;28;19924;-69
2024/01/17 04:37:58;;;;;;;;;;;;;;;-5.07;100.00;99685.72;4996694;28;20294;-68
2024/01/17 04:40:23;;;;;;;;;;;;;;;-4.91;100.00;99685.41;5006748;28;21081;-69
2024/01/17 04:42:49;;;;;;;;;;;;;;;-4.95;100.00;99675.91;4997289;28;20271;-68
2024/01/17 04:45:17;;;;;;;;;;;;;;;-4.97;100.00;99662.25;5006716;28;19921;-68
2024/01/17 04:47:43;;;;;;;;;;;;;;;-4.93;100.00;99653.84;5011273;28;19963;-68
2024/01/17 04:50:12;;;;;;;;;;;;;;;-5.03;100.00;99651.81;5001722;28;19922;-68
2024/01/17 04:52:40;;;;;;;;;;;;;;;-5.07;100.00;99650.84;5000658;28;19921;-68
2024/01/17 04:55:07;;;;;;;;;;;;;;;-5.11;100.00;99655.81;4994394;28;20459;-69
2024/01/17 04:57:33;;;;;;;;;;;;;;;-4.96;100.00;99661.41;5000989;28;20364;-71
2024/01/17 04:59:58;;;;;;;;;;;;;;;-4.94;100.00;99661.44;4999121;28;19964;-71
2024/01/17 05:02:23;;;;;;;;;;;;;;;-5.02;100.00;99648.44;5010875;28;19921;-71
2024/01/17 05:04:49;;;;;;;;;;;;;;;-5.16;100.00;99642.88;5012254;28;19922;-71
2024/01/17 05:07:15;;;;;;;;;;;;;;;-5.15;100.00;99636.09;4998874;28;20378;-71
2024/01/17 05:09:40;;;;;;;;;;;;;;;-5.20;100.00;99640.19;5012350;28;19925;-71
2024/01/17 05:12:06;;;;;;;;;;;;;;;-5.22;100.00;99628.22;5018758;28;19917;-71
2024/01/17 05:14:31;;;;;;;;;;;;;;;-5.24;100.00;99622.22;5010380;28;19983;-71
2024/01/17 05:16:56;;;;;;;;;;;;;;;-5.27;100.00;99618.69;5003881;28;20369;-71
2024/01/17 05:19:22;;;;;;;;;;;;;;;-5.28;100.00;99607.59;4993572;28;20349;-71
2024/01/17 05:21:47;;;;;;;;;;;;;;;-5.29;100.00;99603.31;4995599;28;19921;-71
2024/01/17 05:24:12;;;;;;;;;;;;;;;-5.34;100.00;99604.84;5003713;28;19922;-71
2024/01/17 05:26:38;;;;;;;;;;;;;;;-5.37;100.00;99604.75;4993847;28;19929;-71
2024/01/17 05:29:03;;;;;;;;;;;;;;;-5.37;100.00;99611.53;4999025;28;19976;-71
2024/01/17 05:31:29;;;;;;;;;;;;;;;-5.39;100.00;99603.84;5007421;28;19921;-71
2024/01/17 05:33:54;;;;;;;;;;;;;;;-5.36;100.00;99592.84;5004681;28;19921;-71
2024/01/17 05:36:19;;;;;;;;;;;;;;;-5.36;100.00;99587.75;4998982;28;19921;-71
2024/01/17 05:38:44;;;;;;;;;;;;;;;-5.37;100.00;99581.78;4997639;28;19987;-71
2024/01/17 05:41:10;;;;;;;;;;;;;;;-5.29;100.00;99587.97;5003205;28;20359;-71
2024/01/17 05:43:35;;;;;;;;;;;;;;;-5.28;100.00;99576.09;4996078;28;19926;-71
2024/01/17 05:46:00;;;;;;;;;;;;;;;-5.23;100.00;99572.88;5011957;28;19956;-71
2024/01/17 05:48:26;;;;;;;;;;;;;;;-5.26;100.00;99565.13;5028540;28;20316;-71
2024/01/17 05:50:51;;;;;;;;;;;;;;;-5.30;100.00;99555.63;5000542;28;19925;-71
2024/01/17 05:53:17;;;;;;;;;;;;;;;-5.24;100.00;99552.41;4993332;28;19964;-71
2024/01/17 05:55:42;;;;;;;;;;;;;;;-5.22;100.00;99540.53;5000448;28;20028;-71
2024/01/17 05:58:09;;;;;;;;;;;;;;;-5.25;100.00;99535.31;5009546;28;20304;-71
2024/01/17 06:00:34;;;;;;;;;;;;;;;-5.25;100.00;99537.88;5009303;28;19925;-68
2024/01/17 06:03:00;;;;;;;;;;;;;;;-5.14;100.00;99548.41;4992102;28;19924;-68
2024/01/17 06:05:25;;;;;;;;;;;;;;;-5.06;100.00;99539.31;5011001;28;19981;-68
2024/01/17 06:07:51;;;;;;;;;;;;;;;-5.07;100.00;99532.44;5010561;28;19930;-68
2024/01/17 06:10:17;;;;;;;;;;;;;;;-5.06;100.00;99526.53;5015197;28;19945;-68
2024/01/17 06:12:42;;;;;;;;;;;;;;;-5.07;100.00;99519.69;5006723;28;20028;-68
2024/01/17 06:15:08;;;;;;;;;;;;;;;-5.18;100.00;99521.94;4998438;28;19925;-68
2024/01/17 06:17:34;;;;;;;;;;;;;;;-5.13;100.00;99519.50;5000160;28;19917;-68
2024/01/17 06:19:59;;;;;;;;;;;;;;;-5.20;100.00;99520.13;5003674;28;19925;-68
2024/01/17 06:22:26;;;;;;;;;;;;;;;-5.15;100.00;99516.91;5001621;28;19922;-68
2024/01/17 06:24:51;;;;;;;;;;;;;;;-5.17;100.00;99512.56;5002455;28;19976;-68
2024/01/17 06:27:17;;;;;;;;;;;;;;;-5.02;100.00;99510.47;4999228;28;19926;-68
2024/01/17 06:29:43;;;;;;;;;;;;;;;-4.92;100.00;99507.38;5000187;28;19929;-68
2024/01/17 06:32:08;;;;;;;;;;;;;;;-4.93;100.00;99503.09;5006140;28;19966;-68
2024/01/17 06:34:34;;;;;;;;;;;;;;;-5.01;100.00;99496.88;5001054;28;20020;-68
2024/01/17 06:36:59;;;;;;;;;;;;;;;-4.91;100.00;99496.31;5003552;28;20016;-68
2024/01/17 06:39:26;;;;;;;;;;;;;;;-4.90;100.00;99490.41;4990828;28;19925;-68
2024/01/17 06:41:51;;;;;;;;;;;;;;;-5.00;100.00;99485.81;5003544;28;20380;-68
2024/01/17 06:44:17;;;;;;;;;;;;;;;-4.98;100.00;99484.19;4996061;28;20009;-68
2024/01/17 06:46:42;;;;;;;;;;;;;;;-4.93;100.00;99476.66;4998514;28;19936;-68
2024/01/17 06:49:07;;;;;;;;;;;;;;;-4.95;100.00;99479.16;4980754;28;20556;-68
2024/01/17 06:51:33;;;;;;;;;;;;;;;-4.96;100.00;99481.69;4978191;28;19925;-68
2024/01/17 06:53:59;;;;;;;;;;;;;;;-4.95;100.00;99481.72;5020006;28;19922;-68
2024/01/17 06:56:24;;;;;;;;;;;;;;;-4.94;100.00;99475.81;5003304;28;19925;-68
2024/01/17 06:58:49;;;;;;;;;;;;;;;-4.85;100.00;99474.34;4997754;28;19928;-68
2024/01/17 07:01:15;;;;;;;;;;;;;;;-4.91;100.00;99475.88;4983040;28;19925;-68
2024/01/17 07:03:40;;;;;;;;;;;;;;;-4.88;100.00;99470.84;4996680;28;19925;-68
2024/01/17 07:06:05;;;;;;;;;;;;;;;-4.87;100.00;99466.59;4979547;28;19933;-68
2024/01/17 07:08:31;;;;;;;;;;;;;;;-4.85;100.00;99467.53;5015943;28;19917;-68
2024/01/17 07:10:56;;;;;;;;;;;;;;;-4.84;100.00;99461.59;5008748;28;19981;-68
2024/01/17 07:13:21;;;;;;;;;;;;;;;-4.88;100.00;99454.66;4995057;28;19925;-68
2024/01/17 07:15:47;;;;;;;;;;;;;;;-4.89;100.00;99446.13;4983469;28;19917;-68
2024/01/17 07:18:12;;;;;;;;;;;;;;;-4.86;100.00;99437.69;5017213;28;19913;-68
2024/01/17 07:20:37;;;;;;;;;;;;;;;-4.81;100.00;99431.00;5001620;28;19921;-68
2024/01/17 07:23:03;;;;;;;;;;;;;;;-4.84;100.00;99418.16;4982210;28;19928;-68
2024/01/17 07:25:28;;;;;;;;;;;;;;;-4.84;100.00;99415.59;4988754;28;20378;-68
2024/01/17 07:27:53;;;;;;;;;;;;;;;-4.87;100.00;99406.16;5012590;28;19913;-68
2024/01/17 07:30:19;;;;;;;;;;;;;;;-4.90;100.00;99403.53;5011945;28;19928;-68
2024/01/17 07:32:45;;;;;;;;;;;;;;;-4.84;100.00;99394.28;4992492;28;20299;-68
2024/01/17 07:35:10;;;;;;;;;;;;;;;-4.82;100.00;99393.50;4990915;28;19968;-68
2024/01/17 07:37:36;;;;;;;;;;;;;;;-4.77;100.00;99396.16;5011016;28;19917;-68
2024/01/17 07:40:01;;;;;;;;;;;;;;;-4.75;100.00;99394.53;4971509;28;19925;-68
2024/01/17 07:42:26;;;;;;;;;;;;;;;-4.78;100.00;99389.34;4990787;28;19922;-68
2024/01/17 07:44:52;;;;;;;;;;;;;;;-4.80;100.00;99391.84;4996433;28;20373;-68
2024/01/17 07:47:17;;;;;;;;;;;;;;;-4.77;100.00;99381.72;4980013;28;19925;-68
2024/01/17 07:49:44;;;;;;;;;;;;;;;-4.72;100.00;99371.63;4995890;28;19968;-68
2024/01/17 07:52:10;;;;;;;;;;;;;;;-4.62;100.00;99365.91;4995838;28;20007;-68
2024/01/17 07:54:36;;;;;;;;;;;;;;;-4.71;99.14;99355.47;4991478;28;19926;-69
2024/01/17 07:57:05;;;;;;;;;;;;;;;-4.71;100.00;99355.47;4991956;28;19929;-68
2024/01/17 07:59:30;;;;;;;;;;;;;;;-4.68;99.59;99344.41;4992984;28;20065;-68
2024/01/17 08:01:56;;;;;;;;;;;;;;;-4.66;99.85;99338.53;4996884;28;20016;-68
2024/01/17 08:04:23;;;;;;;;;;;;;;;-4.68;99.90;99340.19;4973965;28;19926;-68
2024/01/17 08:06:49;;;;;;;;;;;;;;;-4.74;100.00;99335.78;4995294;28;19925;-68
2024/01/17 08:09:20;;;;;;;;;;;;;;;-4.75;100.00;99333.19;4996204;28;19925;-68
2024/01/17 08:11:53;;;;;;;;;;;;;;;-4.73;100.00;99328.97;4985419;28;19925;-68
2024/01/17 08:14:19;;;;;;;;;;;;;;;-4.72;100.00;99331.56;4992787;28;19920;-68
2024/01/17 08:16:44;;;;;;;;;;;;;;;-4.70;100.00;99339.28;4992224;28;19914;-68
2024/01/17 08:19:10;;;;;;;;;;;;;;;-4.75;100.00;99322.97;4992622;28;20004;-68
2024/01/17 08:21:36;;;;;;;;;;;;;;;-4.72;100.00;99326.47;5002261;28;19922;-68
2024/01/17 08:24:01;;;;;;;;;;;;;;;-4.68;100.00;99326.53;4976522;28;20131;-68
2024/01/17 08:26:26;;;;;;;;;;;;;;;-4.66;100.00;99320.63;4986200;28;20407;-68
2024/01/17 08:28:52;;;;;;;;;;;;;;;-4.64;100.00;99316.44;4995630;28;20453;-68
2024/01/17 08:31:17;;;;;;;;;;;;;;;-4.58;100.00;99316.59;4974079;28;19922;-68
2024/01/17 08:33:42;;;;;;;;;;;;;;;-4.52;100.00;99305.66;4991963;28;20607;-68
2024/01/17 08:36:08;;;;;;;;;;;;;;;-4.50;100.00;99298.00;5011814;28;19924;-68
2024/01/17 08:38:33;;;;;;;;;;;;;;;-4.42;100.00;99291.41;5011144;28;19918;-71
2024/01/17 08:40:58;;;;;;;;;;;;;;;-4.40;100.00;99298.25;4992532;28;19929;-71
2024/01/17 08:43:24;;;;;;;;;;;;;;;-4.38;100.00;99288.09;4983002;28;20007;-71
2024/01/17 08:45:50;;;;;;;;;;;;;;;-4.39;100.00;99286.34;4989859;28;19949;-71
2024/01/17 08:48:15;;;;;;;;;;;;;;;-4.27;100.00;99285.75;5009679;28;19918;-71
2024/01/17 08:50:43;;;;;;;;;;;;;;;-4.33;100.00;99281.38;4978926;28;20012;-71
2024/01/17 08:53:09;;;;;;;;;;;;;;;-4.23;100.00;99278.19;4981954;28;19960;-71
2024/01/17 08:55:34;;;;;;;;;;;;;;;-4.23;100.00;99267.94;4991457;28;20390;-71
2024/01/17 08:58:00;;;;;;;;;;;;;;;-4.16;99.23;99263.00;5002293;28;20005;-71
2024/01/17 09:00:25;;;;;;;;;;;;;;;-4.15;99.65;99267.25;5011481;28;19921;-71
2024/01/17 09:02:51;;;;;;;;;;;;;;;-4.15;99.57;99264.69;4991023;28;19969;-71
2024/01/17 09:05:18;;;;;;;;;;;;;;;-4.13;99.17;99256.22;4987087;28;19924;-70
2024/01/17 09:07:45;;;;;;;;;;;;;;;-4.06;99.57;99252.13;4973034;28;20024;-69
2024/01/17 09:10:13;;;;;;;;;;;;;;;-4.01;99.31;99248.84;5002197;28;19922;-70
2024/01/17 09:12:38;;;;;;;;;;;;;;;-3.94;99.60;99249.81;4975899;28;20419;-70
2024/01/17 09:15:04;;;;;;;;;;;;;;;-3.88;99.27;99239.72;4993775;28;19925;-70
2024/01/17 09:17:29;;;;;;;;;;;;;;;-3.75;99.14;99239.94;4993906;28;19913;-70
2024/01/17 09:19:55;;;;;;;;;;;;;;;-3.70;99.33;99228.13;4991127;28;20012;-70
2024/01/17 09:22:21;;;;;;;;;;;;;;;-3.68;98.89;99229.00;5008978;28;19925;-70
2024/01/17 09:24:47;;;;;;;;;;;;;;;-3.61;98.67;99230.84;4978313;28;20274;-70
2024/01/17 09:27:12;;;;;;;;;;;;;;;-3.54;98.41;99219.03;4976003;28;19928;-70
2024/01/17 09:29:37;;;;;;;;;;;;;;;-3.50;98.21;99213.16;4977134;28;19921;-70
2024/01/17 09:32:04;;;;;;;;;;;;;;;-3.41;98.08;99217.56;4996922;28;19917;-70
2024/01/17 09:34:32;;;;;;;;;;;;;;;-3.38;98.03;99212.50;4989644;28;19963;-70
2024/01/17 09:36:58;;;;;;;;;;;;;;;-3.31;98.15;99207.50;4973399;28;19941;-70
2024/01/17 09:39:23;;;;;;;;;;;;;;;-3.30;98.14;99205.81;5004748;28;19918;-70
2024/01/17 09:41:49;;;;;;;;;;;;;;;-3.32;98.54;99200.66;4993018;28;19968;-70
2024/01/17 09:44:15;;;;;;;;;;;;;;;-3.30;98.17;99210.94;4993931;28;19913;-70
2024/01/17 09:46:43;;;;;;;;;;;;;;;-3.25;98.30;99214.44;4993569;28;19921;-70
2024/01/17 09:49:08;;;;;;;;;;;;;;;-3.19;98.25;99209.44;4994580;28;19917;-70
2024/01/17 09:51:37;;;;;;;;;;;;;;;-3.15;98.22;99206.09;4993399;28;20103;-70
2024/01/17 09:54:04;;;;;;;;;;;;;;;-3.11;98.41;99206.16;5010844;28;19924;-70
2024/01/17 09:56:31;;;;;;;;;;;;;;;-3.13;98.26;99206.97;4974121;28;19925;-70
2024/01/17 09:58:59;;;;;;;;;;;;;;;-3.05;98.17;99204.53;4991308;28;20385;-70
2024/01/17 10:01:26;;;;;;;;;;;;;;;-3.01;97.91;99197.78;4990579;28;20005;-70
2024/01/17 10:03:54;;;;;;;;;;;;;;;-2.96;97.86;99202.13;5008527;28;19961;-70
2024/01/17 10:06:23;;;;;;;;;;;;;;;-2.88;97.52;99186.88;4975186;28;22179;-70
2024/01/17 10:08:48;;;;;;;;;;;;;;;-2.82;97.71;99186.94;4974750;28;19914;-70
2024/01/17 10:11:13;;;;;;;;;;;;;;;-2.78;97.97;99187.88;4958964;28;19969;-70
2024/01/17 10:13:39;;;;;;;;;;;;;;;-2.75;97.33;99181.94;4990170;28;19963;-70
2024/01/17 10:16:04;;;;;;;;;;;;;;;-2.70;97.13;99180.28;4993307;28;20377;-70
2024/01/17 10:18:31;;;;;;;;;;;;;;;-2.68;97.38;99179.47;4967450;28;19991;-70
2024/01/17 10:20:58;;;;;;;;;;;;;;;-2.62;96.98;99173.59;4994361;28;20281;-70
2024/01/17 10:23:24;;;;;;;;;;;;;;;-2.60;97.23;99171.91;4987296;28;19922;-70
2024/01/17 10:25:51;;;;;;;;;;;;;;;-2.65;96.55;99174.38;5000078;28;19926;-70
2024/01/17 10:28:17;;;;;;;;;;;;;;;-2.64;97.25;99162.44;4995342;28;19976;-70
2024/01/17 10:30:43;;;;;;;;;;;;;;;-2.64;97.13;99149.63;4996169;28;19929;-70
2024/01/17 10:33:08;;;;;;;;;;;;;;;-2.64;97.21;99155.63;4993850;28;20283;-70
2024/01/17 10:35:34;;;;;;;;;;;;;;;-2.62;97.08;99153.91;4994590;28;20392;-70
2024/01/17 10:37:59;;;;;;;;;;;;;;;-2.59;97.21;99154.81;4993665;28;19921;-70
2024/01/17 10:40:25;;;;;;;;;;;;;;;-2.56;97.02;99152.28;4978415;28;20373;-70
2024/01/17 10:43:09;;;;;;;;;;;;;;;-2.53;97.23;99147.19;4996767;28;19961;-70
2024/01/17 10:45:35;;;;;;;;;;;;;;;-2.49;96.72;99149.81;4996336;28;19926;-70
2024/01/17 10:48:00;;;;;;;;;;;;;;;-2.47;96.87;99152.41;4996111;28;20445;-70
2024/01/17 10:50:28;;;;;;;;;;;;;;;-2.47;96.69;99137.91;4979220;28;19961;-70
2024/01/17 10:53:00;;;;;;;;;;;;;;;-2.45;97.08;99136.19;4985448;28;19972;-70
2024/01/17 10:55:27;;;;;;;;;;;;;;;-2.45;96.47;99136.19;4985633;28;19934;-70
2024/01/17 10:57:55;;;;;;;;;;;;;;;-2.43;96.20;99123.38;4996406;28;20442;-70
2024/01/17 11:00:26;;;;;;;;;;;;;;;-2.46;96.29;99113.97;5013694;28;19917;-70
2024/01/17 11:02:51;;;;;;;;;;;;;;;-2.48;96.16;99114.78;4990538;28;19925;-70
2024/01/17 11:05:18;;;;;;;;;;;;;;;-2.49;96.40;99106.22;4994873;28;19943;-70
2024/01/17 11:07:44;;;;;;;;;;;;;;;-2.47;96.55;99096.84;4996134;28;19920;-70
2024/01/17 11:10:10;;;;;;;;;;;;;;;-2.45;96.15;99102.00;4997149;28;19917;-70
2024/01/17 11:12:36;;;;;;;;;;;;;;;-2.49;96.11;99093.38;4980159;28;19964;-70
2024/01/17 11:15:03;;;;;;;;;;;;;;;-2.46;96.24;99093.47;4993447;28;19969;-70
2024/01/17 11:17:31;;;;;;;;;;;;;;;-2.42;96.04;99094.34;4978650;28;19918;-70
2024/01/17 11:19:57;;;;;;;;;;;;;;;-2.39;96.28;99090.97;4993316;28;20361;-70
2024/01/17 11:22:23;;;;;;;;;;;;;;;-2.35;95.77;99095.28;5006616;28;20401;-70
2024/01/17 11:24:55;;;;;;;;;;;;;;;-2.33;95.62;99084.22;4997049;28;20285;-70
2024/01/17 11:27:36;;;;;;;;;;;;;;;-2.31;95.88;99077.38;4995247;28;19964;-70
2024/01/17 11:30:02;;;;;;;;;;;;;;;-2.28;95.70;99085.09;5013157;28;19925;-70
2024/01/17 11:32:45;;;;;;;;;;;;;;;-2.22;95.93;99078.34;4979033;28;19925;-70
2024/01/17 11:35:33;;;;;;;;;;;;;;;-2.25;96.04;99061.19;4991280;28;20275;-70
2024/01/17 11:37:58;;;;;;;;;;;;;;;-2.22;95.56;99061.22;4994952;28;19918;-70
2024/01/17 11:40:24;;;;;;;;;;;;;;;-2.12;95.60;99054.50;4968508;28;19917;-70
2024/01/17 11:42:50;;;;;;;;;;;;;;;-1.98;94.01;99046.94;4992255;28;20398;-70
2024/01/17 11:45:18;;;;;;;;;;;;;;;-2.03;93.18;99040.88;4977389;28;20009;-70
2024/01/17 11:47:55;;;;;;;;;;;;;;;-2.12;93.95;99044.22;4990408;28;20384;-70
2024/01/17 11:50:22;;;;;;;;;;;;;;;-2.16;94.29;99038.19;4976834;28;19925;-70
2024/01/17 11:52:47;;;;;;;;;;;;;;;-2.13;94.70;99039.94;5000979;28;19960;-72
2024/01/17 11:55:12;;;;;;;;;;;;;;;-2.13;94.91;99033.09;4985644;28;19957;-72
2024/01/17 11:57:38;;;;;;;;;;;;;;;-2.10;94.80;99029.69;5011647;28;19937;-72
2024/01/17 12:00:07;;;;;;;;;;;;;;;-2.12;95.13;99016.84;5012549;28;19917;-72
2024/01/17 12:02:39;;;;;;;;;;;;;;;-2.09;94.72;99009.16;4995537;28;19917;-69
2024/01/17 12:05:06;;;;;;;;;;;;;;;-2.05;94.60;99006.63;5095587;22;19925;-67
2024/01/17 12:07:36;;;;;;;;;;;;;;;-2.05;94.68;98997.25;5045515;28;19920;-72
2024/01/17 12:10:07;;;;;;;;;;;;;;;-1.99;94.81;98991.31;5097202;22;19979;-67
2024/01/17 12:12:32;;;;;;;;;;;;;;;-1.92;94.54;98972.53;5054391;28;19924;-67
2024/01/17 12:14:58;;;;;;;;;;;;;;;-1.85;94.09;98971.75;5055164;28;19935;-67
2024/01/17 12:17:23;;;;;;;;;;;;;;;-1.88;94.14;98964.03;5054051;28;19924;-67
2024/01/17 12:19:52;;;;;;;;;;;;;;;-1.85;93.99;98956.34;5032021;28;19920;-69
2024/01/17 12:22:17;;;;;;;;;;;;;;;-1.83;94.10;98946.94;5051356;28;19978;-67
2024/01/17 12:24:43;;;;;;;;;;;;;;;-1.72;93.35;98941.00;5035239;28;20380;-67
2024/01/17 12:27:08;;;;;;;;;;;;;;;-1.77;93.51;98934.16;5028613;28;19947;-72
2024/01/17 12:29:36;;;;;;;;;;;;;;;-1.76;93.07;98928.16;5034846;28;19935;-69
2024/01/17 12:32:02;;;;;;;;;;;;;;;-1.77;93.06;98923.00;5034229;28;20304;-72